Hlavní strana
METAR-TAF:

METAR-TAF

Letiště :

South Alabama Regional Airport

Andalusia, Alabama, Spojené státy americké

zeměpisná šířka: 31-18-00N, zeměpisná délka: 086-23-00W, výška: 94 m

Aktuální stav počasí

Zpráva byla vytvořena před 28 minutami, v 01:56 UTC
vítr z různých směrů 4 kt
Teplota 19°C
Vlhkost vzduchu 88%
Tlak 1021 hPa
Viditelnost: 16.1 km
Zataženo ve výšce 600 ft

METAR: K79J 190156Z AUTO VRB04KT 10SM OVC006 19/17 A3015 RMK AO2 SLP207 T01940172

Čas: 20:24 (02:24 UTC)


TAF: chybějící

Stav a předpovědi počasí z více než 4 000 letišť (zprávy METAR a TAF).

Červené a žluté tečky na mapě představují dostupné meteorologické stanice.

Když kurzor umístíte na tečku, zobrazí se název stanice.

Pak kliknutím zobrazíte stav a předpověď počasí.

Chcete-li změnit mapu, kliknutím na zelené tlačítko se znaménkem +mapu přiblížíte, kliknutím na zelené tlačítko se znaménkem – mapu oddálíte a kliknutím na zelené šipky přejdete na sousední mapy.


METAR-TAF: